Nearby METAR Reports

 

EKAH - Tirstrup (civ/Mi, Denmark
Distance from station: SSW 25km
Updated: 02/10/2022 17:50
Few Clouds
Few Clouds
 Wind from WNW
Wind: WNW 26 km/h
Temperature: 14°C
Dew Point: 9°C
Humidity: 72%
Barometer: 1011 hPa
Clouds: Few Clouds
Visibility: 10 km
Cloud details: Few Clouds 884 m
2022/10/02 15:50 EKAH 021550Z AUTO 29014KT 9999 FEW029/// 14/09 Q1011
EKYT - Alborg, Denmark
Distance from station: NW 91km
Updated: 02/10/2022 17:51
Partly cloudy
Partly cloudy
 Wind from WNW
Wind: WNW 22 km/h, Gust: 43 km/h
Temperature: 14°C
Dew Point: 10°C
Humidity: 77%
Barometer: 1010 hPa
Clouds: Partly cloudy
Visibility: 10 km
Cloud details: Few Clouds 579 m
Partly cloudy 671 m
2022/10/02 15:51 EKYT 021551Z AUTO 29012G23KT 9999 FEW019/// SCT022/// 14/10 Q1010
EKKA - Karup (dan-Afb), Denmark
Distance from station: W 107km
Updated: 02/10/2022 17:50
Light rain, Showers, Partly cloudy
Light rain, Showers, Partly cloudy
 Wind from WNW
Wind: WNW 24 km/h
Temperature: 13°C
Dew Point: 9°C
Humidity: 77%
Barometer: 1012 hPa
Summary: Light rain, Showers
Clouds: Partly cloudy
Visibility: 10 km
Cloud details: Few Clouds 549 m
Partly cloudy 610 m
2022/10/02 15:50 EKKA 021550Z 30013KT 9999 -SHRA FEW018TCU SCT020 13/09 Q1012
 
EKOD - Odense/Beldringe, Denmark
Distance from station: SSW 116km
Updated: 02/10/2022 17:50
Few Clouds
Few Clouds
 Wind from WNW
Wind: WNW 24 km/h
Temperature: 14°C
Dew Point: 11°C
Humidity: 82%
Barometer: 1012 hPa
Clouds: Few Clouds
Visibility: 10 km
Cloud details: Few Clouds 1006 m
2022/10/02 15:50 EKOD 021550Z 29013KT 9999 FEW033 14/11 Q1012
EKBI - Billund Airport, Denmark
Distance from station: SW 134km
Updated: 02/10/2022 17:50
Partly cloudy
Partly cloudy
 Wind from WNW
Wind: WNW 24 km/h, Gust: 43 km/h
Temperature: 13°C
Dew Point: 10°C
Humidity: 82%
Barometer: 1013 hPa
Clouds: Partly cloudy
Visibility: 10 km
Cloud details: Few Clouds 610 m
Partly cloudy 762 m
2022/10/02 15:50 EKBI 021550Z 30013G23KT 9999 FEW020CB SCT025 13/10 Q1013
EKCH - Copenhagen/Kastr, Denmark
Distance from station: SE 148km
Updated: 02/10/2022 17:50
Few Clouds
Few Clouds
 Wind from WNW
Wind: WNW 22 km/h
Temperature: 14°C
Dew Point: 9°C
Humidity: 72%
Barometer: 1009 hPa
Clouds: Few Clouds
Visibility: 10 km
Cloud details: Few Clouds 1128 m
2022/10/02 15:50 EKCH 021550Z AUTO 29012KT 9999 FEW037/// 14/09 Q1009 NOSIG